createdAt,value
2023-03-29T00:02:35.105Z,4.00
2023-03-29T00:05:39.370Z,4.06
2023-03-29T00:08:42.466Z,4.05
2023-03-29T00:11:46.164Z,4.11
2023-03-29T00:14:49.069Z,4.15
2023-03-29T00:17:51.674Z,4.21
2023-03-29T00:20:57.533Z,4.26
2023-03-29T00:24:01.910Z,4.41
2023-03-29T00:27:08.943Z,4.48
2023-03-29T00:30:17.844Z,4.53
2023-03-29T00:33:25.652Z,4.56
2023-03-29T00:36:31.228Z,4.59
2023-03-29T00:39:45.899Z,4.64
2023-03-29T00:42:49.915Z,4.64
2023-03-29T00:45:52.781Z,4.67
2023-03-29T00:49:05.263Z,4.66
2023-03-29T00:52:10.322Z,4.66
2023-03-29T00:55:17.737Z,4.64
2023-03-29T00:58:31.063Z,4.63
2023-03-29T01:01:46.589Z,4.65
2023-03-29T01:05:01.833Z,4.64
2023-03-29T01:08:12.486Z,4.60
2023-03-29T01:11:29.192Z,4.60
2023-03-29T01:14:43.057Z,4.59
2023-03-29T01:17:53.374Z,4.58
2023-03-29T01:21:05.513Z,4.55
2023-03-29T01:24:25.959Z,4.54
2023-03-29T01:28:02.854Z,4.53
2023-03-29T01:31:34.082Z,4.52
2023-03-29T01:34:53.502Z,4.50
2023-03-29T01:38:05.838Z,4.49
2023-03-29T01:41:08.851Z,4.48
2023-03-29T01:44:50.207Z,4.46
2023-03-29T01:48:01.206Z,4.43
2023-03-29T01:51:10.065Z,4.41
2023-03-29T01:54:30.299Z,4.42
2023-03-29T01:57:36.897Z,4.40
2023-03-29T02:00:50.245Z,4.37
2023-03-29T02:04:01.485Z,4.40
2023-03-29T02:07:12.769Z,4.33
2023-03-29T02:10:18.913Z,4.35
2023-03-29T02:13:23.605Z,4.37
2023-03-29T02:16:25.853Z,4.34
2023-03-29T02:24:21.007Z,4.30
2023-03-29T02:27:27.576Z,4.30
2023-03-29T02:30:49.643Z,4.28
2023-03-29T02:34:27.599Z,4.33
2023-03-29T02:37:38.070Z,4.25
2023-03-29T02:40:45.315Z,4.28
2023-03-29T02:43:51.855Z,4.25
2023-03-29T02:46:59.159Z,4.22
2023-03-29T02:50:04.143Z,4.24
2023-03-29T02:53:16.722Z,4.23
2023-03-29T02:56:21.231Z,4.20
2023-03-29T02:59:26.846Z,4.22
2023-03-29T03:02:30.175Z,4.20
2023-03-29T03:05:34.384Z,4.23
2023-03-29T03:08:41.491Z,4.24
2023-03-29T03:11:46.212Z,4.22
2023-03-29T03:14:50.482Z,4.23
2023-03-29T03:17:54.753Z,4.22
2023-03-29T03:21:04.772Z,4.24
2023-03-29T03:24:08.126Z,4.16
2023-03-29T03:27:10.812Z,4.20
2023-03-29T03:30:14.880Z,4.20
2023-03-29T03:33:38.623Z,4.18
2023-03-29T03:37:04.703Z,4.17
2023-03-29T03:40:12.236Z,4.18
2023-03-29T03:43:16.522Z,4.19
2023-03-29T03:46:22.531Z,4.18
2023-03-29T03:49:28.627Z,4.18
2023-03-29T03:52:33.125Z,4.15
2023-03-29T03:55:39.968Z,4.15
2023-03-29T03:58:47.951Z,4.10
2023-03-29T04:01:54.006Z,4.11
2023-03-29T04:05:00.339Z,4.12
2023-03-29T04:08:10.835Z,4.12
2023-03-29T04:11:34.880Z,4.11
2023-03-29T04:14:39.567Z,4.07
2023-03-29T04:17:46.284Z,4.14
2023-03-29T04:21:11.689Z,4.13
2023-03-29T04:24:16.531Z,4.15
2023-03-29T04:27:29.137Z,4.16
2023-03-29T04:30:37.171Z,4.12
2023-03-29T04:34:05.962Z,4.17
2023-03-29T04:37:11.145Z,4.17
2023-03-29T04:40:15.492Z,4.18
2023-03-29T04:43:31.741Z,4.21
2023-03-29T04:46:47.022Z,4.27
2023-03-29T04:49:54.684Z,4.33
2023-03-29T04:53:09.573Z,4.32
2023-03-29T04:56:18.149Z,4.46
2023-03-29T04:59:39.799Z,4.55
2023-03-29T05:02:58.854Z,4.61
2023-03-29T05:06:07.680Z,4.67
2023-03-29T05:09:14.045Z,4.73
2023-03-29T05:12:32.991Z,4.79
2023-03-29T05:15:34.926Z,4.81
2023-03-29T05:18:38.193Z,4.87
2023-03-29T05:21:47.701Z,4.88
2023-03-29T05:24:56.254Z,4.99
2023-03-29T05:27:59.443Z,5.04
2023-03-29T05:31:06.971Z,5.10
2023-03-29T05:34:11.982Z,5.09
2023-03-29T05:37:21.578Z,5.20
2023-03-29T05:40:34.394Z,5.24
2023-03-29T05:43:57.322Z,5.29
2023-03-29T05:47:03.252Z,5.31
2023-03-29T05:50:09.316Z,5.36
2023-03-29T05:53:12.843Z,5.40
2023-03-29T05:56:23.706Z,5.43
2023-03-29T05:59:29.664Z,5.46
2023-03-29T06:02:35.005Z,5.51
2023-03-29T06:05:44.749Z,5.54
2023-03-29T06:08:51.056Z,5.58
2023-03-29T06:11:59.481Z,5.62
2023-03-29T06:15:13.539Z,5.63
2023-03-29T06:18:21.420Z,5.71
2023-03-29T06:21:29.700Z,5.75
2023-03-29T06:24:36.018Z,5.80
2023-03-29T06:27:49.591Z,5.82
2023-03-29T06:31:04.863Z,5.92
2023-03-29T06:34:18.722Z,5.99
2023-03-29T06:37:56.834Z,6.08
2023-03-29T06:41:11.462Z,6.15
2023-03-29T06:44:36.309Z,6.23
2023-03-29T06:47:48.148Z,6.33
2023-03-29T06:50:54.619Z,6.39
2023-03-29T06:54:01.057Z,6.47
2023-03-29T06:57:06.266Z,6.53
2023-03-29T07:00:32.028Z,6.62
2023-03-29T07:03:49.355Z,6.70
2023-03-29T07:07:03.912Z,6.76
2023-03-29T07:10:08.929Z,6.83
2023-03-29T07:13:49.035Z,6.91
2023-03-29T07:16:57.349Z,6.98
2023-03-29T07:20:18.014Z,7.02
2023-03-29T07:23:33.554Z,7.13
2023-03-29T07:26:36.216Z,7.18
2023-03-29T07:29:40.190Z,7.22
2023-03-29T07:32:49.502Z,7.37
2023-03-29T07:36:16.000Z,7.47
2023-03-29T07:39:20.406Z,7.56
2023-03-29T07:42:52.593Z,7.68
2023-03-29T07:46:05.491Z,7.75
2023-03-29T07:49:13.410Z,7.82
2023-03-29T07:52:17.576Z,7.89
2023-03-29T07:55:21.875Z,7.98
2023-03-29T07:58:57.543Z,8.02
2023-03-29T08:02:01.299Z,8.07
2023-03-29T08:05:14.079Z,8.13
2023-03-29T08:08:28.381Z,8.17
2023-03-29T08:11:38.889Z,8.19
2023-03-29T08:14:49.953Z,8.29
2023-03-29T08:18:03.089Z,8.35
2023-03-29T08:21:07.799Z,8.42
2023-03-29T08:24:20.826Z,8.47
2023-03-29T08:27:28.217Z,8.60
2023-03-29T08:30:35.915Z,8.68
2023-03-29T08:33:45.762Z,8.75
2023-03-29T08:37:18.897Z,8.88
2023-03-29T08:40:28.009Z,9.00
2023-03-29T08:44:16.007Z,9.14
2023-03-29T08:48:10.233Z,9.22
2023-03-29T08:51:41.726Z,9.30
2023-03-29T08:54:49.010Z,9.38
2023-03-29T08:58:13.328Z,9.44
2023-03-29T09:01:20.255Z,9.48
2023-03-29T09:04:37.183Z,9.52
2023-03-29T09:08:00.351Z,9.59
2023-03-29T09:11:19.121Z,9.65
2023-03-29T09:15:06.597Z,9.69
2023-03-29T09:18:29.692Z,9.74
2023-03-29T09:22:16.479Z,9.73
2023-03-29T09:26:10.210Z,9.79
2023-03-29T09:29:48.520Z,9.86
2023-03-29T09:33:27.132Z,9.90
2023-03-29T09:37:03.096Z,9.97
2023-03-29T09:40:25.605Z,10.04
2023-03-29T09:43:56.575Z,10.11
2023-03-29T09:47:30.528Z,10.25
2023-03-29T09:50:54.582Z,10.34
2023-03-29T09:54:00.710Z,10.44
2023-03-29T09:57:26.078Z,10.53
2023-03-29T10:00:29.582Z,10.62
2023-03-29T10:03:33.709Z,10.67
2023-03-29T10:06:53.799Z,10.74
2023-03-29T10:10:02.706Z,10.79
2023-03-29T10:13:13.397Z,10.83
2023-03-29T10:16:21.744Z,10.90
2023-03-29T10:19:36.908Z,10.97
2023-03-29T10:22:40.480Z,11.04
2023-03-29T10:25:43.778Z,11.05
2023-03-29T10:29:07.960Z,11.05
2023-03-29T10:32:27.116Z,11.08
2023-03-29T10:35:41.754Z,11.14
2023-03-29T10:38:45.282Z,11.19
2023-03-29T10:41:54.478Z,11.25
2023-03-29T10:45:01.755Z,11.30
2023-03-29T10:48:11.062Z,11.36
2023-03-29T10:51:17.999Z,11.47
2023-03-29T10:54:24.209Z,11.54
2023-03-29T10:58:02.876Z,11.62
2023-03-29T11:01:05.720Z,11.66
2023-03-29T11:04:21.478Z,11.74
2023-03-29T11:07:31.612Z,11.82
2023-03-29T11:10:42.697Z,11.89
2023-03-29T11:14:15.465Z,11.96
2023-03-29T11:17:42.340Z,12.02
2023-03-29T11:21:10.712Z,12.06
2023-03-29T11:24:34.201Z,12.07
2023-03-29T11:27:55.927Z,12.06
2023-03-29T11:31:16.830Z,12.01
2023-03-29T11:34:47.650Z,12.08
2023-03-29T11:38:18.008Z,12.12
2023-03-29T11:41:25.374Z,12.21
2023-03-29T11:44:36.025Z,12.32
2023-03-29T11:47:40.879Z,12.37
2023-03-29T11:51:13.372Z,12.38
2023-03-29T11:54:41.265Z,12.47
2023-03-29T11:58:04.310Z,12.54
2023-03-29T12:01:23.776Z,12.57
2023-03-29T12:04:41.935Z,12.51
2023-03-29T12:07:56.604Z,12.51
2023-03-29T12:11:09.882Z,12.54
2023-03-29T12:14:30.434Z,12.61
2023-03-29T12:17:47.735Z,12.59
2023-03-29T12:20:58.944Z,12.60
2023-03-29T12:24:05.126Z,12.63
2023-03-29T12:27:28.376Z,12.68
2023-03-29T12:31:00.375Z,12.67
2023-03-29T12:34:35.036Z,12.71
2023-03-29T12:42:19.382Z,12.84
2023-03-29T12:45:53.816Z,12.86
2023-03-29T12:49:06.757Z,12.90
2023-03-29T12:52:27.856Z,12.99
2023-03-29T12:55:49.729Z,13.04
2023-03-29T12:59:13.742Z,13.13
2023-03-29T13:02:35.046Z,13.18
2023-03-29T13:05:38.929Z,13.24
2023-03-29T13:08:43.299Z,13.31
2023-03-29T13:11:53.385Z,13.39
2023-03-29T13:15:03.229Z,13.49
2023-03-29T13:18:22.601Z,13.53
2023-03-29T13:21:51.399Z,13.58
2023-03-29T13:25:19.794Z,13.65
2023-03-29T13:28:48.276Z,13.75
2023-03-29T13:32:23.233Z,13.78
2023-03-29T13:35:55.673Z,13.84
2023-03-29T13:39:05.621Z,13.81
2023-03-29T13:42:23.561Z,13.83
2023-03-29T13:45:32.597Z,13.89
2023-03-29T13:48:41.354Z,13.98
2023-03-29T13:52:17.610Z,14.08
2023-03-29T13:55:35.541Z,14.12
2023-03-29T13:58:52.655Z,14.13
2023-03-29T14:02:01.232Z,14.17
2023-03-29T14:05:11.744Z,14.20
2023-03-29T14:08:26.567Z,14.19
2023-03-29T14:11:30.047Z,14.13
2023-03-29T14:14:33.203Z,14.04
2023-03-29T14:17:37.097Z,14.03
2023-03-29T14:20:46.519Z,14.01
2023-03-29T14:23:58.522Z,13.97
2023-03-29T14:27:02.869Z,13.99
2023-03-29T14:30:21.926Z,13.96
2023-03-29T14:33:38.174Z,13.94
2023-03-29T14:36:46.917Z,13.89
2023-03-29T14:39:51.977Z,13.84
2023-03-29T14:42:55.213Z,13.80
2023-03-29T14:46:01.952Z,13.81
2023-03-29T14:49:08.293Z,13.79
2023-03-29T14:52:16.076Z,13.83
2023-03-29T14:55:26.133Z,13.81
2023-03-29T14:58:37.401Z,13.70
2023-03-29T15:01:44.708Z,13.57
2023-03-29T15:04:56.926Z,13.41
2023-03-29T15:08:02.441Z,13.39
2023-03-29T15:11:18.663Z,13.30
2023-03-29T15:14:38.228Z,13.27
2023-03-29T15:17:52.377Z,13.20
2023-03-29T15:20:56.597Z,13.17
2023-03-29T15:24:07.046Z,13.15
2023-03-29T15:27:23.914Z,13.16
2023-03-29T15:30:36.628Z,13.20
2023-03-29T15:33:41.014Z,13.23
2023-03-29T15:36:47.290Z,13.28
2023-03-29T15:39:48.909Z,13.39
2023-03-29T15:42:51.832Z,13.44
2023-03-29T15:45:53.480Z,13.40
2023-03-29T15:48:55.061Z,13.36
2023-03-29T15:51:56.674Z,13.29
2023-03-29T15:54:58.399Z,13.23
2023-03-29T15:58:01.150Z,13.19
2023-03-29T16:01:23.383Z,13.11
2023-03-29T16:04:26.040Z,13.12
2023-03-29T16:07:27.957Z,13.06
2023-03-29T16:10:29.612Z,13.07
2023-03-29T16:13:31.228Z,13.05
2023-03-29T16:16:32.770Z,13.02
2023-03-29T16:19:34.449Z,13.00
2023-03-29T16:22:37.789Z,12.96
2023-03-29T16:25:40.421Z,12.96
2023-03-29T16:28:42.505Z,12.95
2023-03-29T16:31:49.983Z,13.00
2023-03-29T16:34:53.602Z,13.02
2023-03-29T16:37:55.348Z,13.05
2023-03-29T16:40:57.254Z,13.07
2023-03-29T16:44:00.208Z,13.07
2023-03-29T16:47:01.943Z,13.08
2023-03-29T16:50:04.158Z,13.06
2023-03-29T16:53:06.102Z,13.03
2023-03-29T16:56:07.876Z,12.96
2023-03-29T16:59:09.845Z,12.96
2023-03-29T17:02:11.359Z,12.95
2023-03-29T17:05:13.264Z,12.91
2023-03-29T17:08:16.453Z,12.85
2023-03-29T17:11:23.221Z,12.81
2023-03-29T17:14:25.512Z,12.76
2023-03-29T17:17:27.349Z,12.72
2023-03-29T17:20:34.384Z,12.65
2023-03-29T17:23:36.141Z,12.62
2023-03-29T17:26:38.178Z,12.58
2023-03-29T17:29:40.186Z,12.52
2023-03-29T17:32:42.235Z,12.48
2023-03-29T17:35:44.675Z,12.42
2023-03-29T17:38:49.531Z,12.37
2023-03-29T17:41:51.183Z,12.32
2023-03-29T17:44:55.111Z,12.25
2023-03-29T17:47:56.789Z,12.16
2023-03-29T17:50:58.618Z,12.13
2023-03-29T17:54:00.721Z,12.04
2023-03-29T17:57:02.692Z,11.98
2023-03-29T18:00:06.301Z,11.93
2023-03-29T18:03:08.879Z,11.84
2023-03-29T18:06:11.653Z,11.79
2023-03-29T18:09:13.302Z,11.70
2023-03-29T18:12:14.903Z,11.65
2023-03-29T18:15:17.019Z,11.59
2023-03-29T18:18:19.488Z,11.52
2023-03-29T18:21:22.141Z,11.45
2023-03-29T18:24:24.183Z,11.38
2023-03-29T18:27:26.250Z,11.32
2023-03-29T18:30:27.877Z,11.30
2023-03-29T18:33:35.263Z,11.25
2023-03-29T18:36:37.180Z,11.21
2023-03-29T18:39:38.736Z,11.19
2023-03-29T18:42:41.417Z,11.15
2023-03-29T18:45:44.396Z,11.12
2023-03-29T18:48:46.329Z,11.04
2023-03-29T18:51:49.569Z,11.05
2023-03-29T18:54:51.417Z,11.02
2023-03-29T18:57:53.044Z,10.97
2023-03-29T19:00:54.958Z,10.90
2023-03-29T19:03:57.432Z,10.92
2023-03-29T19:07:01.350Z,10.88
2023-03-29T19:10:04.645Z,10.80
2023-03-29T19:13:07.940Z,10.75
2023-03-29T19:16:10.418Z,10.68
2023-03-29T19:19:12.856Z,10.68
2023-03-29T19:22:14.690Z,10.64
2023-03-29T19:25:16.786Z,10.64
2023-03-29T19:28:20.629Z,10.61
2023-03-29T19:31:22.509Z,10.57
2023-03-29T19:34:24.589Z,10.53
2023-03-29T19:37:26.504Z,10.51
2023-03-29T19:40:28.226Z,10.48
2023-03-29T19:43:29.813Z,10.46
2023-03-29T19:46:32.112Z,10.45
2023-03-29T19:49:36.614Z,10.40
2023-03-29T19:52:38.372Z,10.40
2023-03-29T19:55:42.573Z,10.34
2023-03-29T19:58:44.290Z,10.34
2023-03-29T20:01:51.056Z,10.36
2023-03-29T20:04:53.012Z,10.34
2023-03-29T20:07:57.268Z,10.34
2023-03-29T20:11:02.336Z,10.32
2023-03-29T20:14:05.520Z,10.27
2023-03-29T20:17:08.350Z,10.31
2023-03-29T20:20:12.191Z,10.33
2023-03-29T20:23:17.698Z,10.37
2023-03-29T20:26:19.805Z,10.34
2023-03-29T20:29:24.071Z,10.37
2023-03-29T20:32:30.939Z,10.38
2023-03-29T20:35:35.464Z,10.39
2023-03-29T20:38:38.412Z,10.36
2023-03-29T20:41:42.051Z,10.37
2023-03-29T20:44:51.159Z,10.37
2023-03-29T20:48:02.978Z,10.35
2023-03-29T20:51:10.978Z,10.34
2023-03-29T20:54:14.126Z,10.31
2023-03-29T20:57:23.671Z,10.30
2023-03-29T21:00:32.188Z,10.28
2023-03-29T21:03:36.935Z,10.26
2023-03-29T21:06:43.101Z,10.25
2023-03-29T21:09:45.114Z,10.24
2023-03-29T21:12:50.107Z,10.17
2023-03-29T21:15:56.810Z,10.19
2023-03-29T21:18:58.858Z,10.18
2023-03-29T21:22:08.583Z,10.14
2023-03-29T21:25:15.733Z,10.09
2023-03-29T21:28:17.387Z,10.09
2023-03-29T21:31:26.091Z,10.06
2023-03-29T21:34:30.064Z,10.08
2023-03-29T21:37:34.699Z,10.10
2023-03-29T21:40:36.920Z,10.13
2023-03-29T21:43:40.451Z,10.16
2023-03-29T21:46:43.934Z,10.18
2023-03-29T21:49:46.599Z,10.18
2023-03-29T21:52:49.136Z,10.23
2023-03-29T21:55:52.095Z,10.23
2023-03-29T21:58:56.528Z,10.24
2023-03-29T22:01:58.474Z,10.25
2023-03-29T22:05:02.058Z,10.27
2023-03-29T22:08:10.923Z,10.28
2023-03-29T22:11:17.860Z,10.27
2023-03-29T22:14:19.509Z,10.23
2023-03-29T22:17:27.109Z,10.25
2023-03-29T22:20:36.576Z,10.26
2023-03-29T22:23:42.532Z,10.29
2023-03-29T22:26:50.198Z,10.27
2023-03-29T22:29:52.375Z,10.31
2023-03-29T22:32:55.615Z,10.35
2023-03-29T22:35:58.538Z,10.37
2023-03-29T22:39:02.891Z,10.36
2023-03-29T22:42:05.383Z,10.37
2023-03-29T22:45:12.186Z,10.33
2023-03-29T22:48:23.122Z,10.36
2023-03-29T22:51:27.507Z,10.37
2023-03-29T22:54:31.244Z,10.37
2023-03-29T22:57:35.937Z,10.37
2023-03-29T23:00:37.565Z,10.35
2023-03-29T23:03:40.626Z,10.35
2023-03-29T23:06:43.049Z,10.36
2023-03-29T23:09:47.882Z,10.36
2023-03-29T23:12:50.007Z,10.36
2023-03-29T23:15:55.205Z,10.31
2023-03-29T23:19:02.546Z,10.36
2023-03-29T23:22:14.445Z,10.33
2023-03-29T23:25:17.530Z,10.34
2023-03-29T23:28:24.888Z,10.32
2023-03-29T23:31:27.634Z,10.31
2023-03-29T23:34:36.166Z,10.27
2023-03-29T23:37:39.468Z,10.26
2023-03-29T23:40:46.433Z,10.24
2023-03-29T23:43:56.768Z,10.23
2023-03-29T23:47:00.226Z,10.20
2023-03-29T23:50:07.692Z,10.20
2023-03-29T23:53:10.601Z,10.14
2023-03-29T23:56:16.528Z,10.12
2023-03-29T23:59:19.808Z,10.07
